createdAt,value
2019-01-20T00:02:14.693Z,63.17
2019-01-20T00:04:45.084Z,66.07
2019-01-20T00:07:15.429Z,62.13
2019-01-20T00:09:45.863Z,62.57
2019-01-20T00:12:16.541Z,60.70
2019-01-20T00:14:46.835Z,64.50
2019-01-20T00:17:17.715Z,56.77
2019-01-20T00:19:48.389Z,54.90
2019-01-20T00:22:18.729Z,54.03
2019-01-20T00:24:49.254Z,59.43
2019-01-20T00:27:20.157Z,57.10
2019-01-20T00:29:50.468Z,53.70
2019-01-20T00:32:20.867Z,52.07
2019-01-20T00:34:51.441Z,57.10
2019-01-20T00:37:22.045Z,52.13
2019-01-20T00:39:52.408Z,53.60
2019-01-20T00:42:22.927Z,58.60
2019-01-20T00:44:53.379Z,55.83
2019-01-20T00:47:25.366Z,59.80
2019-01-20T00:49:55.780Z,56.57
2019-01-20T00:52:26.090Z,58.73
2019-01-20T00:54:56.857Z,56.87
2019-01-20T00:57:28.364Z,56.43
2019-01-20T00:59:58.663Z,56.50
2019-01-20T01:02:29.512Z,53.33
2019-01-20T01:04:59.845Z,57.13
2019-01-20T01:07:30.419Z,60.83
2019-01-20T01:10:00.715Z,57.70
2019-01-20T01:12:31.348Z,56.40
2019-01-20T01:15:02.029Z,58.80
2019-01-20T01:17:33.520Z,52.00
2019-01-20T01:20:04.558Z,60.13
2019-01-20T01:22:35.175Z,50.73
2019-01-20T01:25:06.743Z,48.83
2019-01-20T01:27:37.132Z,51.33
2019-01-20T01:30:20.398Z,52.57
2019-01-20T01:32:51.195Z,55.53
2019-01-20T01:35:21.477Z,58.87
2019-01-20T01:37:53.025Z,50.40
2019-01-20T01:40:23.319Z,55.30
2019-01-20T01:42:54.135Z,51.80
2019-01-20T01:45:24.601Z,56.20
2019-01-20T01:47:55.021Z,50.83
2019-01-20T01:50:25.804Z,50.93
2019-01-20T01:52:56.377Z,54.10
2019-01-20T01:55:26.718Z,52.13
2019-01-20T01:57:57.681Z,51.40
2019-01-20T02:00:28.437Z,54.83
2019-01-20T02:02:58.927Z,48.47
2019-01-20T02:05:29.296Z,47.87
2019-01-20T02:08:00.006Z,43.73
2019-01-20T02:10:30.341Z,49.30
2019-01-20T02:13:00.809Z,46.13
2019-01-20T02:15:32.640Z,35.50
2019-01-20T02:18:03.009Z,40.63
2019-01-20T02:20:33.322Z,43.70
2019-01-20T02:23:04.386Z,34.70
2019-01-20T02:25:35.830Z,36.73
2019-01-20T02:28:06.193Z,36.70
2019-01-20T02:30:36.772Z,35.67
2019-01-20T02:33:07.467Z,37.57
2019-01-20T02:35:37.780Z,34.67
2019-01-20T02:38:08.478Z,37.60
2019-01-20T02:40:39.079Z,33.80
2019-01-20T02:43:09.482Z,28.40
2019-01-20T02:45:40.073Z,31.00
2019-01-20T02:48:10.584Z,27.23
2019-01-20T02:50:42.177Z,26.87
2019-01-20T02:53:13.042Z,29.57
2019-01-20T02:55:44.331Z,28.40
2019-01-20T02:58:15.159Z,24.73
2019-01-20T03:00:45.905Z,29.17
2019-01-20T03:03:16.226Z,28.67
2019-01-20T03:05:46.558Z,27.60
2019-01-20T03:08:16.994Z,25.90
2019-01-20T03:10:47.275Z,24.57
2019-01-20T03:13:17.639Z,25.50
2019-01-20T03:15:48.077Z,28.47
2019-01-20T03:18:18.708Z,26.63
2019-01-20T03:20:49.400Z,24.80
2019-01-20T03:23:19.774Z,22.93
2019-01-20T03:25:50.206Z,25.67
2019-01-20T03:28:21.943Z,23.80
2019-01-20T03:30:52.308Z,24.27
2019-01-20T03:33:22.726Z,22.57
2019-01-20T03:35:53.259Z,20.93
2019-01-20T03:38:23.530Z,22.63
2019-01-20T03:40:53.889Z,26.97
2019-01-20T03:43:24.658Z,21.83
2019-01-20T03:45:55.195Z,20.70
2019-01-20T03:48:26.061Z,28.37
2019-01-20T03:50:56.587Z,23.07
2019-01-20T03:53:26.954Z,22.23
2019-01-20T03:55:57.971Z,18.77
2019-01-20T03:58:28.455Z,18.50
2019-01-20T04:00:58.821Z,20.37
2019-01-20T04:03:29.436Z,22.07
2019-01-20T04:05:59.828Z,24.17
2019-01-20T04:08:30.126Z,22.20
2019-01-20T04:11:00.951Z,21.60
2019-01-20T04:13:31.641Z,16.93
2019-01-20T04:16:01.941Z,19.53
2019-01-20T04:18:32.746Z,23.70
2019-01-20T04:21:03.026Z,20.53
2019-01-20T04:23:33.608Z,23.77
2019-01-20T04:26:04.259Z,16.90
2019-01-20T04:28:34.576Z,19.60
2019-01-20T04:31:05.279Z,18.77
2019-01-20T04:33:35.933Z,17.97
2019-01-20T04:36:06.202Z,19.37
2019-01-20T04:38:36.979Z,21.00
2019-01-20T04:41:07.572Z,20.57
2019-01-20T04:43:37.946Z,19.23
2019-01-20T04:46:08.514Z,16.67
2019-01-20T04:48:39.101Z,21.33
2019-01-20T04:51:09.475Z,21.87
2019-01-20T04:53:40.787Z,21.43
2019-01-20T04:56:11.099Z,24.17
2019-01-20T04:58:41.889Z,21.27
2019-01-20T05:01:12.280Z,21.87
2019-01-20T05:03:42.585Z,21.03
2019-01-20T05:06:12.941Z,19.60
2019-01-20T05:08:43.812Z,19.27
2019-01-20T05:11:14.115Z,18.60
2019-01-20T05:13:44.559Z,18.50
2019-01-20T05:16:15.222Z,18.10
2019-01-20T05:18:45.711Z,22.33
2019-01-20T05:21:17.073Z,17.60
2019-01-20T05:23:47.711Z,22.87
2019-01-20T05:26:18.302Z,21.63
2019-01-20T05:28:49.067Z,17.87
2019-01-20T05:31:19.411Z,17.60
2019-01-20T05:33:49.715Z,18.17
2019-01-20T05:36:21.443Z,19.30
2019-01-20T05:38:51.730Z,15.53
2019-01-20T05:41:22.044Z,25.50
2019-01-20T05:43:52.776Z,28.07
2019-01-20T05:46:23.292Z,18.03
2019-01-20T05:48:53.735Z,17.63
2019-01-20T05:51:24.266Z,16.50
2019-01-20T05:53:55.015Z,15.37
2019-01-20T05:56:25.422Z,17.37
2019-01-20T05:58:55.750Z,16.47
2019-01-20T06:01:27.313Z,17.27
2019-01-20T06:03:57.982Z,16.93
2019-01-20T06:06:28.290Z,16.00
2019-01-20T06:08:58.958Z,14.60
2019-01-20T06:11:29.767Z,18.50
2019-01-20T06:14:00.463Z,15.73
2019-01-20T06:16:30.756Z,17.70
2019-01-20T06:19:01.562Z,16.93
2019-01-20T06:21:32.254Z,18.97
2019-01-20T06:24:02.606Z,18.20
2019-01-20T06:26:33.006Z,19.17
2019-01-20T06:29:03.774Z,17.90
2019-01-20T06:31:34.041Z,17.57
2019-01-20T06:34:04.419Z,16.67
2019-01-20T06:36:36.003Z,19.83
2019-01-20T06:39:08.702Z,15.93
2019-01-20T06:41:39.040Z,15.30
2019-01-20T06:44:09.885Z,16.13
2019-01-20T06:46:40.374Z,16.67
2019-01-20T06:49:10.925Z,17.30
2019-01-20T06:51:41.478Z,14.87
2019-01-20T06:54:12.101Z,13.77
2019-01-20T06:56:42.767Z,20.17
2019-01-20T06:59:13.160Z,16.17
2019-01-20T07:01:43.441Z,16.60
2019-01-20T07:04:13.890Z,15.87
2019-01-20T07:06:44.419Z,16.53
2019-01-20T07:09:15.901Z,17.80
2019-01-20T07:11:46.644Z,17.30
2019-01-20T07:14:17.370Z,15.77
2019-01-20T07:16:47.749Z,15.70
2019-01-20T07:19:18.636Z,15.73
2019-01-20T07:21:49.456Z,15.90
2019-01-20T07:24:19.785Z,16.90
2019-01-20T07:26:50.640Z,17.00
2019-01-20T07:29:21.149Z,19.03
2019-01-20T07:31:51.458Z,18.30
2019-01-20T07:34:21.970Z,18.63
2019-01-20T07:36:52.400Z,17.17
2019-01-20T07:39:23.235Z,19.73
2019-01-20T07:41:53.927Z,18.23
2019-01-20T07:44:24.281Z,15.90
2019-01-20T07:46:54.778Z,12.30
2019-01-20T07:49:25.558Z,17.97
2019-01-20T07:51:56.019Z,14.87
2019-01-20T07:54:26.437Z,17.43
2019-01-20T07:56:57.107Z,14.57
2019-01-20T07:59:27.450Z,16.70
2019-01-20T08:01:57.750Z,15.30
2019-01-20T08:04:28.147Z,15.93
2019-01-20T08:06:58.528Z,16.27
2019-01-20T08:09:28.947Z,15.83
2019-01-20T08:11:59.247Z,13.47
2019-01-20T08:14:29.627Z,17.50
2019-01-20T08:17:00.007Z,14.60
2019-01-20T08:19:30.422Z,14.23
2019-01-20T08:22:00.809Z,18.93
2019-01-20T08:24:31.544Z,15.73
2019-01-20T08:27:01.890Z,16.23
2019-01-20T08:29:32.416Z,16.60
2019-01-20T08:32:03.154Z,17.47
2019-01-20T08:34:33.608Z,17.27
2019-01-20T08:37:04.431Z,14.83
2019-01-20T08:39:34.942Z,15.47
2019-01-20T08:42:05.363Z,13.73
2019-01-20T08:44:39.593Z,13.80
2019-01-20T08:47:32.163Z,17.17
2019-01-20T08:50:02.788Z,16.10
2019-01-20T08:52:33.350Z,15.50
2019-01-20T08:55:04.353Z,13.57
2019-01-20T08:57:34.658Z,15.93
2019-01-20T09:00:07.655Z,13.90
2019-01-20T09:02:38.035Z,13.07
2019-01-20T09:05:08.833Z,12.33
2019-01-20T09:07:39.689Z,16.60
2019-01-20T09:10:18.026Z,15.83
2019-01-20T09:12:48.929Z,15.80
2019-01-20T09:15:19.424Z,15.83
2019-01-20T09:17:50.040Z,20.03
2019-01-20T09:20:20.873Z,17.30
2019-01-20T09:22:51.457Z,14.80
2019-01-20T09:25:21.986Z,11.90
2019-01-20T09:27:54.077Z,15.53
2019-01-20T09:30:24.879Z,12.70
2019-01-20T09:32:57.221Z,11.67
2019-01-20T09:35:27.830Z,14.10
2019-01-20T09:37:58.510Z,12.00
2019-01-20T09:40:28.797Z,12.83
2019-01-20T09:42:59.263Z,12.43
2019-01-20T09:45:31.083Z,13.43
2019-01-20T09:48:01.790Z,12.27
2019-01-20T09:50:32.650Z,14.83
2019-01-20T09:53:02.952Z,18.47
2019-01-20T09:55:33.630Z,15.03
2019-01-20T09:58:04.057Z,19.07
2019-01-20T10:00:34.528Z,15.63
2019-01-20T10:03:04.866Z,18.63
2019-01-20T10:05:35.485Z,18.27
2019-01-20T10:08:06.242Z,15.13
2019-01-20T10:10:36.545Z,16.63
2019-01-20T10:13:07.430Z,15.33
2019-01-20T10:15:37.885Z,16.57
2019-01-20T10:18:08.794Z,19.87
2019-01-20T10:20:39.214Z,17.87
2019-01-20T10:23:09.662Z,17.10
2019-01-20T10:25:40.653Z,18.23
2019-01-20T10:28:12.914Z,17.63
2019-01-20T10:30:43.200Z,17.17
2019-01-20T10:33:13.913Z,15.67
2019-01-20T10:35:50.237Z,15.40
2019-01-20T10:38:20.606Z,16.97
2019-01-20T10:40:51.382Z,15.63
2019-01-20T10:43:22.324Z,14.70
2019-01-20T10:45:52.637Z,17.30
2019-01-20T10:48:23.627Z,16.50
2019-01-20T10:50:54.411Z,15.03
2019-01-20T10:53:24.691Z,16.70
2019-01-20T10:55:55.327Z,15.63
2019-01-20T10:58:25.743Z,16.30
2019-01-20T11:00:56.024Z,14.60
2019-01-20T11:03:26.329Z,12.67
2019-01-20T11:05:56.875Z,15.03
2019-01-20T11:08:27.166Z,17.97
2019-01-20T11:10:57.467Z,17.77
2019-01-20T11:13:28.281Z,13.70
2019-01-20T11:15:58.849Z,15.07
2019-01-20T11:18:29.414Z,18.43
2019-01-20T11:21:00.059Z,19.87
2019-01-20T11:23:30.477Z,18.03
2019-01-20T11:26:01.173Z,16.10
2019-01-20T11:28:31.604Z,16.10
2019-01-20T11:31:01.877Z,17.27
2019-01-20T11:33:32.663Z,19.37
2019-01-20T11:36:03.126Z,16.37
2019-01-20T11:38:33.414Z,20.97
2019-01-20T11:41:04.172Z,16.77
2019-01-20T11:43:34.879Z,17.27
2019-01-20T11:46:05.447Z,19.13
2019-01-20T11:48:36.146Z,15.77
2019-01-20T11:51:06.831Z,18.47
2019-01-20T11:53:37.595Z,17.93
2019-01-20T11:56:08.060Z,17.60
2019-01-20T11:58:38.392Z,17.23
2019-01-20T12:01:09.674Z,17.07
2019-01-20T12:03:40.365Z,18.33
2019-01-20T12:06:10.791Z,22.97
2019-01-20T12:08:41.413Z,18.63
2019-01-20T12:11:12.171Z,18.50
2019-01-20T12:13:42.451Z,18.57
2019-01-20T12:16:13.226Z,21.37
2019-01-20T12:18:44.025Z,17.60
2019-01-20T12:21:15.468Z,17.13
2019-01-20T12:23:46.118Z,17.70
2019-01-20T12:26:16.448Z,20.03
2019-01-20T12:28:46.837Z,16.70
2019-01-20T12:31:17.548Z,17.50
2019-01-20T12:33:47.845Z,17.13
2019-01-20T12:36:18.444Z,15.83
2019-01-20T12:38:49.081Z,22.23
2019-01-20T12:41:19.686Z,19.97
2019-01-20T12:43:49.990Z,14.87
2019-01-20T12:46:20.622Z,18.00
2019-01-20T12:48:50.926Z,18.03
2019-01-20T12:51:28.356Z,18.37
2019-01-20T12:53:53.658Z,23.43
2019-01-20T12:56:24.051Z,23.03
2019-01-20T12:58:54.433Z,24.07
2019-01-20T13:01:24.802Z,22.50
2019-01-20T13:03:55.096Z,28.80
2019-01-20T13:06:25.880Z,21.83
2019-01-20T13:08:56.154Z,22.50
2019-01-20T13:11:26.521Z,25.73
2019-01-20T13:13:57.124Z,24.37
2019-01-20T13:16:27.829Z,23.13
2019-01-20T13:18:58.173Z,25.57
2019-01-20T13:21:28.776Z,28.30
2019-01-20T13:23:59.125Z,26.03
2019-01-20T13:26:29.511Z,32.47
2019-01-20T13:28:59.797Z,33.30
2019-01-20T13:31:30.203Z,32.10
2019-01-20T13:34:00.773Z,30.30
2019-01-20T13:36:31.334Z,29.30
2019-01-20T13:39:01.694Z,32.27
2019-01-20T13:41:34.533Z,30.07
2019-01-20T13:44:08.850Z,27.93
2019-01-20T13:46:39.355Z,33.97
2019-01-20T13:49:10.079Z,34.07
2019-01-20T13:51:40.994Z,73.23
2019-01-20T13:54:11.304Z,65.53
2019-01-20T13:56:41.688Z,121.17
2019-01-20T13:59:11.965Z,36.83
2019-01-20T14:01:42.911Z,53.03
2019-01-20T14:04:13.647Z,43.63
2019-01-20T14:06:43.976Z,52.13
2019-01-20T14:09:14.515Z,54.37
2019-01-20T14:11:45.303Z,59.63
2019-01-20T14:14:15.710Z,62.27
2019-01-20T14:16:46.289Z,70.20
2019-01-20T14:19:21.700Z,61.83
2019-01-20T14:21:49.258Z,59.13
2019-01-20T14:24:19.550Z,73.63
2019-01-20T14:26:50.377Z,74.77
2019-01-20T14:29:20.660Z,69.20
2019-01-20T14:31:51.520Z,68.30
2019-01-20T14:34:21.817Z,58.50
2019-01-20T14:36:52.273Z,66.80
2019-01-20T14:39:22.923Z,66.20
2019-01-20T14:41:53.273Z,58.63
2019-01-20T14:44:23.606Z,58.03
2019-01-20T14:46:54.396Z,55.43
2019-01-20T14:49:24.727Z,58.30
2019-01-20T14:51:55.438Z,60.53
2019-01-20T14:54:26.120Z,83.63
2019-01-20T14:56:56.698Z,66.03
2019-01-20T14:59:27.023Z,71.57
2019-01-20T15:01:57.752Z,81.27
2019-01-20T15:04:28.537Z,80.77
2019-01-20T15:06:58.954Z,94.30
2019-01-20T15:09:29.582Z,92.07
2019-01-20T15:12:00.414Z,84.73
2019-01-20T15:14:30.848Z,90.10
2019-01-20T15:17:01.521Z,86.00
2019-01-20T15:19:32.153Z,99.40
2019-01-20T15:22:02.830Z,105.53
2019-01-20T15:24:33.154Z,105.43
2019-01-20T15:27:03.968Z,92.20
2019-01-20T15:29:34.299Z,86.67
2019-01-20T15:32:04.857Z,88.70
2019-01-20T15:34:35.485Z,103.87
2019-01-20T15:37:06.131Z,102.73
2019-01-20T15:39:36.870Z,103.93
2019-01-20T15:42:07.476Z,102.43
2019-01-20T15:44:37.763Z,86.30
2019-01-20T15:47:08.486Z,92.43
2019-01-20T15:49:38.780Z,75.07
2019-01-20T15:52:09.204Z,94.53
2019-01-20T15:54:39.835Z,97.60
2019-01-20T15:57:10.195Z,66.80
2019-01-20T15:59:40.481Z,51.77
2019-01-20T16:02:11.240Z,64.43
2019-01-20T16:04:41.960Z,54.17
2019-01-20T16:07:12.545Z,51.33
2019-01-20T16:09:42.834Z,54.00
2019-01-20T16:12:13.235Z,64.70
2019-01-20T16:14:43.874Z,63.67
2019-01-20T16:17:14.500Z,68.03
2019-01-20T16:19:44.797Z,72.63
2019-01-20T16:22:15.508Z,96.33
2019-01-20T16:24:45.978Z,96.13
2019-01-20T16:27:16.639Z,95.17
2019-01-20T16:29:47.270Z,97.80
2019-01-20T16:32:18.077Z,89.50
2019-01-20T16:34:48.370Z,91.83
2019-01-20T16:37:18.880Z,86.57
2019-01-20T16:39:49.203Z,80.20
2019-01-20T16:42:19.855Z,89.70
2019-01-20T16:44:50.640Z,85.33
2019-01-20T16:47:21.143Z,90.43
2019-01-20T16:49:51.833Z,90.67
2019-01-20T16:52:22.897Z,96.03
2019-01-20T16:54:53.200Z,87.63
2019-01-20T16:57:23.582Z,78.93
2019-01-20T16:59:54.346Z,83.77
2019-01-20T17:02:24.769Z,89.83
2019-01-20T17:04:55.174Z,85.77
2019-01-20T17:07:26.101Z,116.23
2019-01-20T17:09:56.413Z,86.40
2019-01-20T17:12:26.720Z,84.63
2019-01-20T17:14:57.455Z,78.23
2019-01-20T17:17:28.082Z,80.73
2019-01-20T17:19:58.349Z,68.70
2019-01-20T17:22:29.052Z,75.10
2019-01-20T17:24:59.428Z,75.97
2019-01-20T17:27:29.701Z,95.93
2019-01-20T17:30:00.472Z,87.70
2019-01-20T17:32:31.335Z,89.37
2019-01-20T17:35:01.625Z,82.27
2019-01-20T17:37:32.119Z,80.57
2019-01-20T17:40:02.824Z,95.17
2019-01-20T17:42:33.142Z,89.53
2019-01-20T17:45:03.966Z,77.93
2019-01-20T17:47:34.311Z,85.63
2019-01-20T17:50:06.672Z,87.90
2019-01-20T17:52:37.188Z,76.27
2019-01-20T17:55:07.873Z,83.67
2019-01-20T17:57:38.527Z,84.47
2019-01-20T18:00:12.279Z,80.70
2019-01-20T18:02:42.901Z,80.20
2019-01-20T18:05:14.822Z,106.90
2019-01-20T18:07:45.699Z,73.70
2019-01-20T18:10:16.197Z,81.80
2019-01-20T18:12:46.737Z,78.33
2019-01-20T18:15:18.227Z,85.03
2019-01-20T18:17:48.781Z,82.47
2019-01-20T18:20:21.867Z,81.07
2019-01-20T18:22:52.229Z,83.40
2019-01-20T18:25:22.822Z,84.10
2019-01-20T18:27:53.648Z,105.23
2019-01-20T18:30:25.640Z,176.80
2019-01-20T18:32:55.946Z,121.67
2019-01-20T18:35:27.243Z,162.30
2019-01-20T18:37:58.070Z,144.27
2019-01-20T18:40:28.630Z,111.03
2019-01-20T18:42:59.375Z,160.00
2019-01-20T18:45:31.687Z,87.13
2019-01-20T18:48:02.208Z,89.50
2019-01-20T18:50:34.477Z,134.33
2019-01-20T18:53:05.337Z,114.13
2019-01-20T18:55:36.842Z,84.80
2019-01-20T18:58:07.673Z,118.40
2019-01-20T19:00:44.146Z,103.87
2019-01-20T19:03:14.989Z,101.33
2019-01-20T19:05:45.853Z,97.93
2019-01-20T19:08:16.174Z,105.80
2019-01-20T19:10:46.835Z,101.33
2019-01-20T19:13:17.555Z,99.93
2019-01-20T19:15:47.924Z,90.33
2019-01-20T19:18:19.108Z,102.27
2019-01-20T19:20:49.800Z,99.87
2019-01-20T19:23:20.103Z,93.27
2019-01-20T19:25:50.448Z,97.43
2019-01-20T19:28:21.220Z,107.63
2019-01-20T19:30:51.580Z,96.77
2019-01-20T19:33:21.936Z,102.83
2019-01-20T19:35:52.905Z,98.70
2019-01-20T19:38:23.393Z,102.17
2019-01-20T19:40:53.873Z,100.07
2019-01-20T19:43:24.391Z,97.40
2019-01-20T19:45:54.813Z,102.00
2019-01-20T19:48:25.106Z,100.80
2019-01-20T19:50:55.532Z,112.50
2019-01-20T19:53:25.825Z,128.87
2019-01-20T19:55:56.728Z,117.10
2019-01-20T19:58:27.225Z,115.93
2019-01-20T20:00:57.776Z,116.90
2019-01-20T20:03:28.728Z,127.20
2019-01-20T20:05:59.523Z,148.27
2019-01-20T20:08:29.815Z,173.07
2019-01-20T20:11:00.506Z,147.83
2019-01-20T20:13:31.173Z,140.10
2019-01-20T20:16:01.779Z,116.57
2019-01-20T20:18:32.245Z,125.07
2019-01-20T20:21:02.988Z,135.30
2019-01-20T20:23:33.302Z,118.73
2019-01-20T20:26:03.831Z,129.30
2019-01-20T20:28:34.229Z,123.17
2019-01-20T20:31:05.402Z,129.60
2019-01-20T20:33:35.928Z,109.13
2019-01-20T20:36:06.319Z,105.03
2019-01-20T20:38:38.340Z,134.23
2019-01-20T20:41:09.186Z,113.50
2019-01-20T20:43:39.511Z,101.50
2019-01-20T20:46:09.970Z,92.30
2019-01-20T20:48:40.354Z,119.13
2019-01-20T20:51:10.929Z,111.03
2019-01-20T20:53:41.246Z,102.93
2019-01-20T20:56:12.014Z,98.07
2019-01-20T20:58:42.449Z,91.50
2019-01-20T21:01:13.259Z,92.47
2019-01-20T21:03:43.905Z,95.67
2019-01-20T21:06:14.394Z,102.37
2019-01-20T21:08:48.466Z,89.40
2019-01-20T21:11:17.279Z,96.17
2019-01-20T21:13:47.541Z,96.23
2019-01-20T21:16:18.155Z,91.53
2019-01-20T21:18:48.682Z,84.57
2019-01-20T21:21:18.998Z,90.50
2019-01-20T21:23:49.673Z,92.43
2019-01-20T21:26:20.368Z,97.33
2019-01-20T21:28:50.752Z,101.10
2019-01-20T21:31:21.340Z,110.17
2019-01-20T21:33:51.634Z,101.37
2019-01-20T21:36:22.481Z,101.53
2019-01-20T21:38:52.911Z,99.07
2019-01-20T21:41:23.255Z,90.80
2019-01-20T21:43:53.926Z,91.00
2019-01-20T21:46:24.506Z,96.77
2019-01-20T21:48:54.793Z,85.57
2019-01-20T21:51:25.568Z,91.43
2019-01-20T21:53:56.049Z,100.13
2019-01-20T21:56:26.486Z,106.80
2019-01-20T21:58:56.906Z,99.53
2019-01-20T22:01:27.500Z,95.77
2019-01-20T22:03:57.963Z,105.40
2019-01-20T22:06:28.640Z,107.10
2019-01-20T22:08:59.092Z,119.30
2019-01-20T22:11:29.826Z,107.80
2019-01-20T22:14:00.208Z,116.60
2019-01-20T22:16:30.552Z,131.70
2019-01-20T22:19:01.135Z,128.80
2019-01-20T22:21:32.055Z,125.00
2019-01-20T22:24:02.372Z,122.97
2019-01-20T22:26:32.719Z,128.00
2019-01-20T22:29:03.374Z,134.63
2019-01-20T22:31:36.068Z,121.13
2019-01-20T22:34:06.777Z,110.13
2019-01-20T22:36:37.463Z,105.90
2019-01-20T22:39:09.074Z,113.07
2019-01-20T22:41:39.544Z,103.23
2019-01-20T22:44:09.832Z,120.00
2019-01-20T22:46:40.180Z,125.50
2019-01-20T22:49:10.869Z,105.67
2019-01-20T22:51:41.269Z,122.13
2019-01-20T22:54:11.811Z,119.57
2019-01-20T22:56:42.489Z,114.97
2019-01-20T22:59:13.003Z,112.40
2019-01-20T23:01:43.298Z,100.97
2019-01-20T23:04:13.953Z,122.17
2019-01-20T23:06:44.354Z,104.33
2019-01-20T23:09:15.106Z,122.33
2019-01-20T23:11:45.405Z,117.23
2019-01-20T23:14:15.699Z,113.50
2019-01-20T23:16:46.096Z,115.53
2019-01-20T23:19:16.702Z,113.97
2019-01-20T23:21:47.031Z,120.10
2019-01-20T23:24:17.828Z,115.00
2019-01-20T23:26:48.617Z,113.17
2019-01-20T23:29:18.962Z,104.27
2019-01-20T23:31:49.705Z,107.60
2019-01-20T23:34:20.454Z,105.83
2019-01-20T23:36:50.778Z,107.70
2019-01-20T23:39:21.217Z,103.17
2019-01-20T23:41:52.026Z,121.43
2019-01-20T23:44:22.365Z,119.20
2019-01-20T23:46:52.668Z,118.10
2019-01-20T23:49:23.354Z,111.13
2019-01-20T23:51:54.002Z,105.60
2019-01-20T23:54:24.347Z,123.83
2019-01-20T23:56:54.991Z,109.80
2019-01-20T23:59:25.658Z,116.00
